createdAt,value
2017-06-12T00:00:11.397Z,93.84
2017-06-12T00:00:39.903Z,93.64
2017-06-12T00:01:08.602Z,94.02
2017-06-12T00:01:37.127Z,93.84
2017-06-12T00:02:05.730Z,94.31
2017-06-12T00:02:34.360Z,94.21
2017-06-12T00:03:02.998Z,94.6
2017-06-12T00:03:31.602Z,94.6
2017-06-12T00:04:00.218Z,94.31
2017-06-12T00:04:28.829Z,94.98
2017-06-12T00:04:57.323Z,94.5
2017-06-12T00:05:25.925Z,94.89
2017-06-12T00:05:54.531Z,94.41
2017-06-12T00:06:23.121Z,95.07
2017-06-12T00:06:51.768Z,94.6
2017-06-12T00:07:20.352Z,94.7
2017-06-12T00:07:48.944Z,95.46
2017-06-12T00:08:17.442Z,95.17
2017-06-12T00:08:46.050Z,95.84
2017-06-12T00:09:14.671Z,95.65
2017-06-12T00:09:43.327Z,95.65
2017-06-12T00:10:11.934Z,95.84
2017-06-12T00:10:40.374Z,95.84
2017-06-12T00:11:08.992Z,96.32
2017-06-12T00:11:37.625Z,96.13
2017-06-12T00:12:06.226Z,96.13
2017-06-12T00:12:34.734Z,96.22
2017-06-12T00:13:03.246Z,96.22
2017-06-12T00:13:31.862Z,96.13
2017-06-12T00:14:00.290Z,96.22
2017-06-12T00:14:28.892Z,96.61
2017-06-12T00:14:57.503Z,96.03
2017-06-12T00:15:26.012Z,96.03
2017-06-12T00:15:54.532Z,96.13
2017-06-12T00:16:23.133Z,96.22
2017-06-12T00:16:51.734Z,96.13
2017-06-12T00:17:20.363Z,96.51
2017-06-12T00:17:48.966Z,96.22
2017-06-12T00:18:17.491Z,96.51
2017-06-12T00:18:46.097Z,96.42
2017-06-12T00:19:14.717Z,96.47
2017-06-12T00:19:43.335Z,96.8
2017-06-12T00:20:11.953Z,96.94
2017-06-12T00:20:40.568Z,96.47
2017-06-12T00:21:09.179Z,96.47
2017-06-12T00:21:37.782Z,96.75
2017-06-12T00:22:06.402Z,96.47
2017-06-12T00:22:35.013Z,96.56
2017-06-12T00:23:03.509Z,96.47
2017-06-12T00:23:32.128Z,96.56
2017-06-12T00:24:00.748Z,96.75
2017-06-12T00:24:29.308Z,96.47
2017-06-12T00:24:57.924Z,96.75
2017-06-12T00:25:26.547Z,96.56
2017-06-12T00:25:55.184Z,96.75
2017-06-12T00:26:23.771Z,96.84
2017-06-12T00:26:52.359Z,96.75
2017-06-12T00:27:20.965Z,96.94
2017-06-12T00:27:49.498Z,96.84
2017-06-12T00:28:17.999Z,96.75
2017-06-12T00:28:46.617Z,96.84
2017-06-12T00:29:15.252Z,96.94
2017-06-12T00:29:43.867Z,96.94
2017-06-12T00:30:12.494Z,96.84
2017-06-12T00:30:41.125Z,96.75
2017-06-12T00:31:09.634Z,96.47
2017-06-12T00:31:38.267Z,96.66
2017-06-12T00:32:06.871Z,96.84
2017-06-12T00:32:35.486Z,96.66
2017-06-12T00:33:03.977Z,96.56
2017-06-12T00:33:32.623Z,96.66
2017-06-12T00:34:01.147Z,97.04
2017-06-12T00:34:29.660Z,96.56
2017-06-12T00:34:58.186Z,96.75
2017-06-12T00:35:26.783Z,96.66
2017-06-12T00:35:55.411Z,96.37
2017-06-12T00:36:24.030Z,96.08
2017-06-12T00:36:52.643Z,96.27
2017-06-12T00:37:21.267Z,96.47
2017-06-12T00:37:49.884Z,96.27
2017-06-12T00:38:18.488Z,96.18
2017-06-12T00:38:47.108Z,96.27
2017-06-12T00:39:15.624Z,96.18
2017-06-12T00:39:44.274Z,96.18
2017-06-12T00:40:12.887Z,96.27
2017-06-12T00:40:41.495Z,96.18
2017-06-12T00:41:10.019Z,96.37
2017-06-12T00:41:38.608Z,96.47
2017-06-12T00:42:07.196Z,96.18
2017-06-12T00:42:35.729Z,96.27
2017-06-12T00:43:04.218Z,96.27
2017-06-12T00:43:32.817Z,95.89
2017-06-12T00:44:01.427Z,95.89
2017-06-12T00:44:30.025Z,96.22
2017-06-12T00:44:58.519Z,96.18
2017-06-12T00:45:27.141Z,96.18
2017-06-12T00:45:55.753Z,95.98
2017-06-12T00:46:24.381Z,95.98
2017-06-12T00:46:57.089Z,95.98
2017-06-12T00:47:25.813Z,96.27
2017-06-12T00:47:54.412Z,96.27
2017-06-12T00:48:23.030Z,96.27
2017-06-12T00:48:51.629Z,96.18
2017-06-12T00:49:20.132Z,96.37
2017-06-12T00:49:48.727Z,96.32
2017-06-12T00:50:17.314Z,96.18
2017-06-12T00:50:45.926Z,96.56
2017-06-12T00:51:14.540Z,95.98
2017-06-12T00:51:43.156Z,96.42
2017-06-12T00:52:11.752Z,96.37
2017-06-12T00:52:40.338Z,95.98
2017-06-12T00:53:08.962Z,96.18
2017-06-12T00:53:37.580Z,95.89
2017-06-12T00:54:06.227Z,95.51
2017-06-12T00:54:34.736Z,95.61
2017-06-12T00:55:03.551Z,95.98
2017-06-12T00:55:32.081Z,96.18
2017-06-12T00:56:00.701Z,96.37
2017-06-12T00:56:29.340Z,95.84
2017-06-12T00:56:57.878Z,95.7
2017-06-12T00:57:26.389Z,95.7
2017-06-12T00:57:54.897Z,96.27
2017-06-12T00:58:23.417Z,95.46
2017-06-12T00:58:52.039Z,95.79
2017-06-12T00:59:20.915Z,96.37
2017-06-12T00:59:49.510Z,96.18
2017-06-12T01:00:17.925Z,95.22
2017-06-12T01:00:46.535Z,96.27
2017-06-12T01:01:15.049Z,96.08
2017-06-12T01:01:43.657Z,96.18
2017-06-12T01:02:12.270Z,96.37
2017-06-12T01:02:40.874Z,96.18
2017-06-12T01:03:09.481Z,96.27
2017-06-12T01:03:37.975Z,96.75
2017-06-12T01:04:06.597Z,96.94
2017-06-12T01:04:35.198Z,96.56
2017-06-12T01:05:03.797Z,96.47
2017-06-12T01:05:32.409Z,97.04
2017-06-12T01:06:01.017Z,97.04
2017-06-12T01:06:29.536Z,97.52
2017-06-12T01:06:58.070Z,97.33
2017-06-12T01:07:26.493Z,97.42
2017-06-12T01:07:55.095Z,97.71
2017-06-12T01:08:23.720Z,97.99
2017-06-12T01:08:52.327Z,97.9
2017-06-12T01:09:20.919Z,97.9
2017-06-12T01:09:49.536Z,98.47
2017-06-12T01:10:18.057Z,98.28
2017-06-12T01:10:46.599Z,98.38
2017-06-12T01:11:15.208Z,98.57
2017-06-12T01:11:43.833Z,98.47
2017-06-12T01:12:12.372Z,98.57
2017-06-12T01:12:40.998Z,98.42
2017-06-12T01:13:09.611Z,98.61
2017-06-12T01:13:38.223Z,98.09
2017-06-12T01:14:06.835Z,99.24
2017-06-12T01:14:35.345Z,99.14
2017-06-12T01:15:03.970Z,99.33
2017-06-12T01:15:32.590Z,99.09
2017-06-12T01:16:01.069Z,98.61
2017-06-12T01:16:29.576Z,98.9
2017-06-12T01:16:58.113Z,98.95
2017-06-12T01:17:26.736Z,98.71
2017-06-12T01:17:55.340Z,98.8
2017-06-12T01:18:23.957Z,98.9
2017-06-12T01:18:52.596Z,99.48
2017-06-12T01:19:21.195Z,99.09
2017-06-12T01:19:49.794Z,98.8
2017-06-12T01:20:18.398Z,99.09
2017-06-12T01:20:47.005Z,99.28
2017-06-12T01:21:15.505Z,99.28
2017-06-12T01:21:44.124Z,99.14
2017-06-12T01:22:12.638Z,99.33
2017-06-12T01:22:41.226Z,98.8
2017-06-12T01:23:09.847Z,99.48
2017-06-12T01:23:38.380Z,99.38
2017-06-12T01:24:07.033Z,99.28
2017-06-12T01:24:35.632Z,99.38
2017-06-12T01:25:04.173Z,99.66
2017-06-12T01:25:32.757Z,99.38
2017-06-12T01:26:01.259Z,99.09
2017-06-12T01:26:29.885Z,99.57
2017-06-12T01:26:58.498Z,98.99
2017-06-12T01:27:27.111Z,99.09
2017-06-12T01:27:55.746Z,99.09
2017-06-12T01:28:24.351Z,98.61
2017-06-12T01:28:52.854Z,99.19
2017-06-12T01:29:21.374Z,99.28
2017-06-12T01:29:49.971Z,99.85
2017-06-12T01:30:18.518Z,99.76
2017-06-12T01:30:47.046Z,99.19
2017-06-12T01:31:15.617Z,98.9
2017-06-12T01:31:44.214Z,99.28
2017-06-12T01:32:12.695Z,99.38
2017-06-12T01:32:41.330Z,98.99
2017-06-12T01:33:09.898Z,99.38
2017-06-12T01:33:38.408Z,99.09
2017-06-12T01:34:07.009Z,99.48
2017-06-12T01:34:35.522Z,99.48
2017-06-12T01:35:04.126Z,99.38
2017-06-12T01:35:32.723Z,99.09
2017-06-12T01:36:01.313Z,99.48
2017-06-12T01:36:29.930Z,98.9
2017-06-12T01:36:58.517Z,99.19
2017-06-12T01:37:27.111Z,98.8
2017-06-12T01:37:55.722Z,99.09
2017-06-12T01:38:24.370Z,98.9
2017-06-12T01:38:52.804Z,98.8
2017-06-12T01:39:21.438Z,98.99
2017-06-12T01:39:50.035Z,98.99
2017-06-12T01:40:18.590Z,99.09
2017-06-12T01:40:47.214Z,99.19
2017-06-12T01:41:15.644Z,98.61
2017-06-12T01:41:44.226Z,99.19
2017-06-12T01:42:12.821Z,99.19
2017-06-12T01:42:41.432Z,99.19
2017-06-12T01:43:10.043Z,99.19
2017-06-12T01:43:38.659Z,98.8
2017-06-12T01:44:07.242Z,98.23
2017-06-12T01:44:35.834Z,98.61
2017-06-12T01:45:04.324Z,98.42
2017-06-12T01:45:32.948Z,98.42
2017-06-12T01:46:01.483Z,98.42
2017-06-12T01:46:30.074Z,98.42
2017-06-12T01:46:58.592Z,98.9
2017-06-12T01:47:27.201Z,98.9
2017-06-12T01:47:55.804Z,98.9
2017-06-12T01:48:24.405Z,99.09
2017-06-12T01:48:53.010Z,98.8
2017-06-12T01:49:21.526Z,99.19
2017-06-12T01:49:50.130Z,99.95
2017-06-12T01:50:18.725Z,99.57
2017-06-12T01:50:47.297Z,99.76
2017-06-12T01:51:15.824Z,99.85
2017-06-12T01:51:44.433Z,99.99
2017-06-12T01:52:13.048Z,99.48
2017-06-12T01:52:41.573Z,99.99
2017-06-12T01:53:10.108Z,99.99
2017-06-12T01:53:38.714Z,99.99
2017-06-12T01:54:07.322Z,99.99
2017-06-12T01:54:35.907Z,99.76
2017-06-12T01:55:04.518Z,99.99
2017-06-12T01:55:33.134Z,99.99
2017-06-12T01:56:01.663Z,99.99
2017-06-12T01:56:30.184Z,99.99
2017-06-12T01:56:58.795Z,99.99
2017-06-12T01:57:27.406Z,99.99
2017-06-12T01:57:56.028Z,99.85
2017-06-12T01:58:24.547Z,99.99
2017-06-12T01:58:53.148Z,99.99
2017-06-12T01:59:21.662Z,99.99
2017-06-12T01:59:50.296Z,99.99
2017-06-12T02:00:18.917Z,99.99
2017-06-12T02:00:47.426Z,99.99
2017-06-12T02:01:16.064Z,99.99
2017-06-12T02:01:44.569Z,99.99
2017-06-12T02:02:13.201Z,99.99
2017-06-12T02:02:41.828Z,99.99
2017-06-12T02:03:10.435Z,99.99
2017-06-12T02:03:39.057Z,99.48
2017-06-12T02:04:07.645Z,99.99
2017-06-12T02:04:36.155Z,99.99
2017-06-12T02:05:04.754Z,99.99
2017-06-12T02:05:33.375Z,99.99
2017-06-12T02:06:01.880Z,99.99
2017-06-12T02:06:30.394Z,99.99
2017-06-12T02:06:58.986Z,99.99
2017-06-12T02:07:27.617Z,99.99
2017-06-12T02:07:56.122Z,99.99
2017-06-12T02:08:24.627Z,99.99
2017-06-12T02:08:53.147Z,99.99
2017-06-12T02:09:21.662Z,99.99
2017-06-12T02:09:50.254Z,99.99
2017-06-12T02:10:18.857Z,99.99
2017-06-12T02:10:47.461Z,99.99
2017-06-12T02:11:15.987Z,99.99
2017-06-12T02:11:44.615Z,99.99
2017-06-12T02:12:13.255Z,99.99
2017-06-12T02:12:41.880Z,99.99
2017-06-12T02:13:10.392Z,99.99
2017-06-12T02:13:38.927Z,99.99
2017-06-12T02:14:07.503Z,99.99
2017-06-12T02:14:36.015Z,99.99
2017-06-12T02:15:04.618Z,99.99
2017-06-12T02:15:33.217Z,99.99
2017-06-12T02:16:01.743Z,99.99
2017-06-12T02:16:30.362Z,99.99
2017-06-12T02:16:58.973Z,99.99
2017-06-12T02:17:27.590Z,99.99
2017-06-12T02:17:56.204Z,99.99
2017-06-12T02:18:24.771Z,99.99
2017-06-12T02:18:53.276Z,99.99
2017-06-12T02:19:21.701Z,99.99
2017-06-12T02:19:50.311Z,99.99
2017-06-12T02:20:18.918Z,99.99
2017-06-12T02:20:47.511Z,99.95
2017-06-12T02:21:16.137Z,99.99
2017-06-12T02:21:44.653Z,99.95
2017-06-12T02:22:13.261Z,99.99
2017-06-12T02:22:41.897Z,99.99
2017-06-12T02:23:10.529Z,99.99
2017-06-12T02:23:39.148Z,99.99
2017-06-12T02:24:07.751Z,99.99
2017-06-12T02:24:36.402Z,99.99
2017-06-12T02:25:04.932Z,99.99
2017-06-12T02:25:33.456Z,99.95
2017-06-12T02:26:02.042Z,99.99
2017-06-12T02:26:30.664Z,99.76
2017-06-12T02:26:59.272Z,99.99
2017-06-12T02:27:27.681Z,99.99
2017-06-12T02:27:56.299Z,99.85
2017-06-12T02:28:24.901Z,99.99
2017-06-12T02:28:53.492Z,99.99
2017-06-12T02:29:22.091Z,99.99
2017-06-12T02:29:50.682Z,99.99
2017-06-12T02:30:19.323Z,99.99
2017-06-12T02:30:47.920Z,99.99
2017-06-12T02:31:16.545Z,99.99
2017-06-12T02:31:45.169Z,99.85
2017-06-12T02:32:13.694Z,99.57
2017-06-12T02:32:42.301Z,99.85
2017-06-12T02:33:10.907Z,99.99
2017-06-12T02:33:39.503Z,99.95
2017-06-12T02:34:08.107Z,99.99
2017-06-12T02:34:36.729Z,99.99
2017-06-12T02:35:05.324Z,99.85
2017-06-12T02:35:33.925Z,99.57
2017-06-12T02:36:02.515Z,99.66
2017-06-12T02:36:31.085Z,99.99
2017-06-12T02:36:59.725Z,99.95
2017-06-12T02:37:28.252Z,99.95
2017-06-12T02:37:56.847Z,99.99
2017-06-12T02:38:25.463Z,99.66
2017-06-12T02:38:54.075Z,99.99
2017-06-12T02:39:22.677Z,99.99
2017-06-12T02:39:51.298Z,99.76
2017-06-12T02:40:19.699Z,99.76
2017-06-12T02:40:48.274Z,99.95
2017-06-12T02:41:16.882Z,99.57
2017-06-12T02:41:45.476Z,99.99
2017-06-12T02:42:14.005Z,99.85
2017-06-12T02:42:42.574Z,99.99
2017-06-12T02:43:11.164Z,99.85
2017-06-12T02:43:39.744Z,99.95
2017-06-12T02:44:08.352Z,99.99
2017-06-12T02:44:36.979Z,99.95
2017-06-12T02:45:05.601Z,99.85
2017-06-12T02:45:36.917Z,99.95
2017-06-12T02:46:05.453Z,99.95
2017-06-12T02:46:34.116Z,99.99
2017-06-12T02:47:02.706Z,99.99
2017-06-12T02:47:31.317Z,99.99
2017-06-12T02:47:59.934Z,99.99
2017-06-12T02:48:28.567Z,99.66
2017-06-12T02:48:57.190Z,99.99
2017-06-12T02:49:25.706Z,99.99
2017-06-12T02:49:54.329Z,99.99
2017-06-12T02:50:22.935Z,99.99
2017-06-12T02:50:51.554Z,99.57
2017-06-12T02:51:19.982Z,99.99
2017-06-12T02:51:48.575Z,99.48
2017-06-12T02:52:17.188Z,99.99
2017-06-12T02:52:45.715Z,99.57
2017-06-12T02:53:14.224Z,99.99
2017-06-12T02:53:42.849Z,99.99
2017-06-12T02:54:11.445Z,99.99
2017-06-12T02:54:40.074Z,99.99
2017-06-12T02:55:08.495Z,99.99
2017-06-12T02:55:37.091Z,99.99
2017-06-12T02:56:05.684Z,99.99
2017-06-12T02:56:34.275Z,99.99
2017-06-12T02:57:02.851Z,99.99
2017-06-12T02:57:31.365Z,99.95
2017-06-12T02:57:59.794Z,99.99
2017-06-12T02:58:28.425Z,99.95
2017-06-12T02:58:56.922Z,99.99
2017-06-12T02:59:25.520Z,99.99
2017-06-12T02:59:54.125Z,99.99
2017-06-12T03:00:22.754Z,99.99
2017-06-12T03:00:51.154Z,99.99
2017-06-12T03:01:19.683Z,99.99
2017-06-12T03:01:48.301Z,99.99
2017-06-12T03:02:16.917Z,99.99
2017-06-12T03:02:45.526Z,99.99
2017-06-12T03:03:14.147Z,99.99
2017-06-12T03:03:42.596Z,99.99
2017-06-12T03:04:11.196Z,99.99
2017-06-12T03:04:39.812Z,99.99
2017-06-12T03:05:08.311Z,99.99
2017-06-12T03:05:36.934Z,99.99
2017-06-12T03:06:05.451Z,99.99
2017-06-12T03:06:33.867Z,99.99
2017-06-12T03:07:02.494Z,99.99
2017-06-12T03:07:31.100Z,99.99
2017-06-12T03:07:59.712Z,99.99
2017-06-12T03:08:28.223Z,99.99
2017-06-12T03:08:56.821Z,99.99
2017-06-12T03:09:25.433Z,99.99
2017-06-12T03:09:54.028Z,99.99
2017-06-12T03:10:22.648Z,99.99
2017-06-12T03:10:51.162Z,99.99
2017-06-12T03:11:19.748Z,99.99
2017-06-12T03:11:48.363Z,99.99
2017-06-12T03:12:16.867Z,99.99
2017-06-12T03:12:45.368Z,99.99
2017-06-12T03:13:13.907Z,99.99
2017-06-12T03:13:42.535Z,99.99
2017-06-12T03:14:11.138Z,99.99
2017-06-12T03:14:39.736Z,99.99
2017-06-12T03:15:08.272Z,99.99
2017-06-12T03:15:36.875Z,99.99
2017-06-12T03:16:05.380Z,99.99
2017-06-12T03:16:33.879Z,99.99
2017-06-12T03:17:02.500Z,99.99
2017-06-12T03:17:31.142Z,99.99
2017-06-12T03:17:59.780Z,99.99
2017-06-12T03:18:28.312Z,99.99
2017-06-12T03:18:56.948Z,99.99
2017-06-12T03:19:25.568Z,99.99
2017-06-12T03:19:54.187Z,99.99
2017-06-12T03:20:22.784Z,99.99
2017-06-12T03:20:51.411Z,99.99
2017-06-12T03:21:20.019Z,99.99
2017-06-12T03:21:48.540Z,99.99
2017-06-12T03:22:17.025Z,99.99
2017-06-12T03:22:45.636Z,99.99
2017-06-12T03:23:14.096Z,99.99
2017-06-12T03:23:42.616Z,99.99
2017-06-12T03:24:11.034Z,99.99
2017-06-12T03:24:39.541Z,99.99
2017-06-12T03:25:08.036Z,99.99
2017-06-12T03:25:36.644Z,99.99
2017-06-12T03:26:05.283Z,99.99
2017-06-12T03:26:33.804Z,99.99
2017-06-12T03:27:02.325Z,99.99
2017-06-12T03:27:30.933Z,99.99
2017-06-12T03:27:59.564Z,99.99
2017-06-12T03:28:28.085Z,99.99
2017-06-12T03:28:56.701Z,99.99
2017-06-12T03:29:25.287Z,99.99
2017-06-12T03:29:53.906Z,99.99
2017-06-12T03:30:22.506Z,99.99
2017-06-12T03:30:51.032Z,99.99
2017-06-12T03:31:19.584Z,99.99
2017-06-12T03:31:48.188Z,99.99
2017-06-12T03:32:16.765Z,99.99
2017-06-12T03:32:45.356Z,99.99
2017-06-12T03:33:13.996Z,99.99
2017-06-12T03:33:42.633Z,99.99
2017-06-12T03:34:11.221Z,99.99
2017-06-12T03:34:39.817Z,99.99
2017-06-12T03:35:08.448Z,99.99
2017-06-12T03:35:36.955Z,99.99
2017-06-12T03:36:05.558Z,99.99
2017-06-12T03:36:34.058Z,99.99
2017-06-12T03:37:02.587Z,99.99
2017-06-12T03:37:31.198Z,99.99
2017-06-12T03:37:59.832Z,99.99
2017-06-12T03:38:28.268Z,99.99
2017-06-12T03:38:56.794Z,99.99
2017-06-12T03:39:25.310Z,99.99
2017-06-12T03:39:53.894Z,99.99
2017-06-12T03:40:22.486Z,99.99
2017-06-12T03:40:50.977Z,99.99
2017-06-12T03:41:19.603Z,99.99
2017-06-12T03:41:48.199Z,99.99
2017-06-12T03:42:16.708Z,99.99
2017-06-12T03:42:45.305Z,99.99
2017-06-12T03:43:13.837Z,99.99
2017-06-12T03:43:42.468Z,99.99
2017-06-12T03:44:10.967Z,99.99
2017-06-12T03:44:39.587Z,99.99
2017-06-12T03:45:08.203Z,99.99
2017-06-12T03:45:36.837Z,99.99
2017-06-12T03:46:05.335Z,99.99
2017-06-12T03:46:33.867Z,99.99
2017-06-12T03:47:02.456Z,99.99
2017-06-12T03:47:31.055Z,99.99
2017-06-12T03:47:59.654Z,99.99
2017-06-12T03:48:28.256Z,99.99
2017-06-12T03:48:56.881Z,99.99
2017-06-12T03:49:25.355Z,99.99
2017-06-12T03:49:53.957Z,99.99
2017-06-12T03:50:22.562Z,99.99
2017-06-12T03:50:51.177Z,99.99
2017-06-12T03:51:19.784Z,99.99
2017-06-12T03:51:48.398Z,99.99
2017-06-12T03:52:17.014Z,99.99
2017-06-12T03:52:45.615Z,99.99
2017-06-12T03:53:14.227Z,99.99
2017-06-12T03:53:42.844Z,99.99
2017-06-12T03:54:11.194Z,99.99
2017-06-12T03:54:39.833Z,99.99
2017-06-12T03:55:08.444Z,99.99
2017-06-12T03:55:37.107Z,99.99
2017-06-12T03:56:05.643Z,99.99
2017-06-12T03:56:34.247Z,99.99
2017-06-12T03:57:02.773Z,99.99
2017-06-12T03:57:31.402Z,99.99
2017-06-12T03:57:59.990Z,99.99
2017-06-12T03:58:28.413Z,99.99
2017-06-12T03:58:56.953Z,99.99
2017-06-12T03:59:25.576Z,99.99
2017-06-12T03:59:54.162Z,99.99
2017-06-12T04:00:22.788Z,99.99
2017-06-12T04:00:51.308Z,99.99
2017-06-12T04:01:19.833Z,99.99
2017-06-12T04:01:48.433Z,99.99
2017-06-12T04:02:16.929Z,99.99
2017-06-12T04:02:45.474Z,99.99
2017-06-12T04:03:14.051Z,99.99
2017-06-12T04:03:42.580Z,99.99
2017-06-12T04:04:11.206Z,99.99
2017-06-12T04:04:39.829Z,99.99
2017-06-12T04:05:08.234Z,99.99
2017-06-12T04:05:36.838Z,99.99
2017-06-12T04:06:05.416Z,99.99
2017-06-12T04:06:34.035Z,99.99
2017-06-12T04:07:02.663Z,99.99
2017-06-12T04:07:31.257Z,99.99
2017-06-12T04:07:59.766Z,99.99
2017-06-12T04:08:28.359Z,99.99
2017-06-12T04:08:56.977Z,99.99
2017-06-12T04:09:25.588Z,99.99
2017-06-12T04:09:54.194Z,99.99
2017-06-12T04:10:22.713Z,99.99
2017-06-12T04:10:51.329Z,99.99
2017-06-12T04:11:19.923Z,99.99
2017-06-12T04:11:48.545Z,99.99
2017-06-12T04:12:17.054Z,99.99
2017-06-12T04:12:45.642Z,99.99
2017-06-12T04:13:14.258Z,99.99
2017-06-12T04:13:42.790Z,99.99
2017-06-12T04:14:11.307Z,99.99
2017-06-12T04:14:39.923Z,99.99
2017-06-12T04:15:08.544Z,99.99
2017-06-12T04:15:37.151Z,99.99
2017-06-12T04:16:05.662Z,99.99
2017-06-12T04:16:34.202Z,99.99
2017-06-12T04:17:02.805Z,99.99
2017-06-12T04:17:31.300Z,99.99
2017-06-12T04:17:59.928Z,99.99
2017-06-12T04:18:28.558Z,99.99
2017-06-12T04:18:57.159Z,99.99
2017-06-12T04:19:25.767Z,99.99
2017-06-12T04:19:54.413Z,99.99
2017-06-12T04:20:23.047Z,99.99
2017-06-12T04:20:51.676Z,99.99
2017-06-12T04:21:20.215Z,99.99
2017-06-12T04:21:48.841Z,99.99
2017-06-12T04:22:17.455Z,99.99
2017-06-12T04:22:46.074Z,99.99
2017-06-12T04:23:14.691Z,99.99
2017-06-12T04:23:43.319Z,99.99
2017-06-12T04:24:11.904Z,99.99
2017-06-12T04:24:40.417Z,99.99
2017-06-12T04:25:08.896Z,99.99
2017-06-12T04:25:37.481Z,99.99
2017-06-12T04:26:05.994Z,99.99
2017-06-12T04:26:34.600Z,99.99
2017-06-12T04:27:03.112Z,99.99
2017-06-12T04:27:31.701Z,99.99
2017-06-12T04:28:00.300Z,99.99
2017-06-12T04:28:28.734Z,99.99
2017-06-12T04:28:57.261Z,99.99
2017-06-12T04:29:25.906Z,99.99
2017-06-12T04:29:54.399Z,99.99
2017-06-12T04:30:22.969Z,99.99
2017-06-12T04:30:51.567Z,99.99
2017-06-12T04:31:20.179Z,99.99
2017-06-12T04:31:48.788Z,99.99
2017-06-12T04:32:17.298Z,99.99
2017-06-12T04:32:45.933Z,99.99
2017-06-12T04:33:14.529Z,99.99
2017-06-12T04:33:43.123Z,99.99
2017-06-12T04:34:11.619Z,99.99
2017-06-12T04:34:40.229Z,99.99
2017-06-12T04:35:08.756Z,99.99
2017-06-12T04:35:37.374Z,99.99
2017-06-12T04:36:05.985Z,99.99
2017-06-12T04:36:34.591Z,99.99
2017-06-12T04:37:03.222Z,99.99
2017-06-12T04:37:31.812Z,99.99
2017-06-12T04:38:00.411Z,99.99
2017-06-12T04:38:28.947Z,99.99
2017-06-12T04:38:57.563Z,99.99
2017-06-12T04:39:26.140Z,99.99
2017-06-12T04:39:54.751Z,99.99
2017-06-12T04:40:23.256Z,99.99
2017-06-12T04:40:51.768Z,99.99
2017-06-12T04:41:20.369Z,99.99
2017-06-12T04:41:49.001Z,99.99
2017-06-12T04:42:17.534Z,99.99
2017-06-12T04:42:46.110Z,99.99
2017-06-12T04:43:14.716Z,99.99
2017-06-12T04:43:43.341Z,99.99
2017-06-12T04:44:11.948Z,99.99
2017-06-12T04:44:40.467Z,99.99
2017-06-12T04:45:08.873Z,99.99
2017-06-12T04:45:37.477Z,99.99
2017-06-12T04:46:06.083Z,99.99
2017-06-12T04:46:34.712Z,99.99
2017-06-12T04:47:03.307Z,99.99
2017-06-12T04:47:31.908Z,99.99
2017-06-12T04:48:00.530Z,99.99
2017-06-12T04:48:29.011Z,99.99
2017-06-12T04:48:57.534Z,99.99
2017-06-12T04:49:26.125Z,99.99
2017-06-12T04:49:54.735Z,99.99
2017-06-12T04:50:23.233Z,99.99
2017-06-12T04:50:53.236Z,99.99
2017-06-12T04:51:21.893Z,99.99
2017-06-12T04:51:50.475Z,99.99
2017-06-12T04:52:19.099Z,99.99
2017-06-12T04:52:47.718Z,99.99
2017-06-12T04:53:16.301Z,99.99
2017-06-12T04:53:44.911Z,99.99
2017-06-12T04:54:13.508Z,99.99
2017-06-12T04:54:41.918Z,99.99
2017-06-12T04:55:10.527Z,99.99
2017-06-12T04:55:39.018Z,99.99
2017-06-12T04:56:07.525Z,99.99
2017-06-12T04:56:36.028Z,99.99
2017-06-12T04:57:04.610Z,99.99
2017-06-12T04:57:33.220Z,99.99
2017-06-12T04:58:01.854Z,99.99
2017-06-12T04:58:30.459Z,99.99
2017-06-12T04:58:58.987Z,99.99
2017-06-12T04:59:27.406Z,99.99
2017-06-12T04:59:56.011Z,99.99
2017-06-12T05:00:24.621Z,99.99
2017-06-12T05:00:53.221Z,99.99
2017-06-12T05:01:21.809Z,99.99
2017-06-12T05:01:50.431Z,99.99
2017-06-12T05:02:18.916Z,99.99
2017-06-12T05:02:48.028Z,99.99
2017-06-12T05:03:16.575Z,99.99
2017-06-12T05:03:45.010Z,99.99
2017-06-12T05:04:13.651Z,99.99
2017-06-12T05:04:42.256Z,99.99
2017-06-12T05:05:10.743Z,99.99
2017-06-12T05:05:39.271Z,99.99
2017-06-12T05:06:07.871Z,99.99
2017-06-12T05:06:36.363Z,99.99
2017-06-12T05:07:04.904Z,99.99
2017-06-12T05:07:33.521Z,99.99
2017-06-12T05:08:02.128Z,99.99
2017-06-12T05:08:30.730Z,99.99
2017-06-12T05:08:59.236Z,99.99
2017-06-12T05:09:27.873Z,99.99
2017-06-12T05:09:56.495Z,99.99
2017-06-12T05:10:25.097Z,99.99
2017-06-12T05:10:53.630Z,99.99
2017-06-12T05:11:22.214Z,99.99
2017-06-12T05:11:50.808Z,99.99
2017-06-12T05:12:19.414Z,99.99
2017-06-12T05:12:48.010Z,99.99
2017-06-12T05:13:16.635Z,99.99
2017-06-12T05:13:45.130Z,99.99
2017-06-12T05:14:13.751Z,99.99
2017-06-12T05:14:42.340Z,99.99
2017-06-12T05:15:10.968Z,99.99
2017-06-12T05:15:39.577Z,99.99
2017-06-12T05:16:08.003Z,99.99
2017-06-12T05:16:36.517Z,99.99
2017-06-12T05:17:05.021Z,99.99
2017-06-12T05:17:33.524Z,99.99
2017-06-12T05:18:02.114Z,99.99
2017-06-12T05:18:30.697Z,99.99
2017-06-12T05:18:59.195Z,99.99
2017-06-12T05:19:27.788Z,99.99
2017-06-12T05:19:56.324Z,99.99
2017-06-12T05:20:24.858Z,99.99
2017-06-12T05:20:53.454Z,99.99
2017-06-12T05:21:22.070Z,99.99
2017-06-12T05:21:50.508Z,99.99
2017-06-12T05:22:19.129Z,99.99
2017-06-12T05:22:47.932Z,99.99
2017-06-12T05:23:16.452Z,99.99
2017-06-12T05:23:45.047Z,99.99
2017-06-12T05:24:13.642Z,99.99
2017-06-12T05:24:42.148Z,99.99
2017-06-12T05:25:10.755Z,99.99
2017-06-12T05:25:39.369Z,99.99
2017-06-12T05:26:07.883Z,99.99
2017-06-12T05:26:36.484Z,99.99
2017-06-12T05:27:05.002Z,99.99
2017-06-12T05:27:33.621Z,99.99
2017-06-12T05:28:02.036Z,99.99
2017-06-12T05:28:30.634Z,99.99
2017-06-12T05:28:59.145Z,99.99
2017-06-12T05:29:27.775Z,99.99
2017-06-12T05:29:56.377Z,99.99
2017-06-12T05:30:24.972Z,99.99
2017-06-12T05:30:53.581Z,99.99
2017-06-12T05:31:22.028Z,99.99
2017-06-12T05:31:50.550Z,99.99
2017-06-12T05:32:19.124Z,99.99
2017-06-12T05:32:47.662Z,99.99
2017-06-12T05:33:16.244Z,99.99
2017-06-12T05:33:44.769Z,99.99
2017-06-12T05:34:13.376Z,99.99
2017-06-12T05:34:41.982Z,99.99
2017-06-12T05:35:10.613Z,99.99
2017-06-12T05:35:39.229Z,99.99
2017-06-12T05:36:07.745Z,99.99
2017-06-12T05:36:36.342Z,99.99
2017-06-12T05:37:04.937Z,99.99
2017-06-12T05:37:33.546Z,99.99
2017-06-12T05:38:02.168Z,99.99
2017-06-12T05:38:30.805Z,99.99
2017-06-12T05:38:59.417Z,99.99
2017-06-12T05:39:28.053Z,99.99
2017-06-12T05:39:56.646Z,99.99
2017-06-12T05:40:25.235Z,99.99
2017-06-12T05:40:53.815Z,99.99
2017-06-12T05:41:22.433Z,99.99
2017-06-12T05:41:51.062Z,99.99
2017-06-12T05:42:19.669Z,99.99
2017-06-12T05:42:48.280Z,99.99
2017-06-12T05:43:16.877Z,99.99
2017-06-12T05:43:45.490Z,99.99
2017-06-12T05:44:13.885Z,99.99
2017-06-12T05:44:42.500Z,99.99
2017-06-12T05:45:11.095Z,99.99
2017-06-12T05:45:39.574Z,99.99
2017-06-12T05:46:08.102Z,99.99
2017-06-12T05:46:36.703Z,99.99
2017-06-12T05:47:05.215Z,99.99
2017-06-12T05:47:33.733Z,99.99
2017-06-12T05:48:02.347Z,99.99
2017-06-12T05:48:30.979Z,99.99
2017-06-12T05:48:59.607Z,99.99
2017-06-12T05:49:28.131Z,99.99
2017-06-12T05:49:56.718Z,99.99
2017-06-12T05:50:25.246Z,99.99
2017-06-12T05:50:53.864Z,99.99
2017-06-12T05:51:52.829Z,99.99
2017-06-12T05:52:21.454Z,99.99
2017-06-12T05:52:50.077Z,99.99
2017-06-12T05:53:18.671Z,99.99
2017-06-12T05:53:47.289Z,99.99
2017-06-12T05:54:15.789Z,99.99
2017-06-12T05:54:44.386Z,99.99
2017-06-12T05:55:13.001Z,99.99
2017-06-12T05:55:41.641Z,99.99
2017-06-12T05:56:10.278Z,99.99
2017-06-12T05:56:38.868Z,99.99
2017-06-12T05:57:07.452Z,99.99
2017-06-12T05:57:35.964Z,99.99
2017-06-12T05:58:04.579Z,99.99
2017-06-12T05:58:33.194Z,99.99
2017-06-12T05:59:01.815Z,99.99
2017-06-12T05:59:30.434Z,99.99
2017-06-12T05:59:59.047Z,99.99
2017-06-12T06:00:27.579Z,99.99
2017-06-12T06:00:56.221Z,99.99
2017-06-12T06:01:24.844Z,99.99
2017-06-12T06:01:53.447Z,99.99
2017-06-12T06:02:21.954Z,99.99
2017-06-12T06:02:50.577Z,99.99
2017-06-12T06:03:19.204Z,99.99
2017-06-12T06:03:47.818Z,99.99
2017-06-12T06:04:16.366Z,99.99
2017-06-12T06:04:44.899Z,99.99
2017-06-12T06:05:13.506Z,99.99
2017-06-12T06:05:42.106Z,99.99
2017-06-12T06:06:10.626Z,99.99
2017-06-12T06:06:39.241Z,99.99
2017-06-12T06:07:07.855Z,99.99
2017-06-12T06:07:36.380Z,99.99
2017-06-12T06:08:04.983Z,99.99
2017-06-12T06:08:33.560Z,99.99
2017-06-12T06:09:02.174Z,99.99